Time;durP1;ratioP1;P1;durP2;ratioP2;P2;SDS_P1;SDS_P2;PMS_P1;PMS_P2;Temp;Humidity;BMP_temperature;BMP_pressure;BME280_temperature;BME280_humidity;BME280_pressure;Samples;Min_cycle;Max_cycle;Signal;HPM_P1;HPM_P2
2023/01/08 00:02:01;;;;;;;9.23;2.70;;;;;;;;;;5064744;28;20029;-78
2023/01/08 00:04:27;;;;;;;4.78;2.83;;;;;;;;;;5063093;28;20036;-75
2023/01/08 00:06:53;;;;;;;7.90;2.72;;;;;;;;;;5064682;28;20493;-77
2023/01/08 00:09:19;;;;;;;3.72;2.22;;;;;;;;;;5066245;28;20044;-76
2023/01/08 00:11:47;;;;;;;4.95;2.78;;;;;;;;;;5065417;28;20416;-77
2023/01/08 00:14:13;;;;;;;4.15;2.88;;;;;;;;;;5059939;28;20498;-75
2023/01/08 00:16:39;;;;;;;5.53;2.60;;;;;;;;;;5060554;28;20116;-77
2023/01/08 00:19:05;;;;;;;8.75;2.70;;;;;;;;;;5059278;28;20162;-77
2023/01/08 00:21:32;;;;;;;5.45;3.00;;;;;;;;;;5063783;28;20473;-76
2023/01/08 00:23:58;;;;;;;4.68;2.55;;;;;;;;;;5059141;28;20083;-77
2023/01/08 00:26:24;;;;;;;5.10;2.90;;;;;;;;;;5062471;28;20048;-75
2023/01/08 00:28:50;;;;;;;4.88;2.38;;;;;;;;;;5068098;28;20091;-76
2023/01/08 00:31:16;;;;;;;4.05;2.42;;;;;;;;;;5066198;28;20071;-77
2023/01/08 00:33:42;;;;;;;3.13;2.40;;;;;;;;;;5045908;28;20167;-76
2023/01/08 00:36:10;;;;;;;4.85;3.00;;;;;;;;;;5068352;28;20446;-77
2023/01/08 00:38:36;;;;;;;7.00;2.90;;;;;;;;;;5069549;28;20028;-76
2023/01/08 00:41:02;;;;;;;5.85;2.60;;;;;;;;;;5072320;28;20028;-76
2023/01/08 00:43:28;;;;;;;7.22;2.53;;;;;;;;;;5070083;28;20039;-77
2023/01/08 00:45:54;;;;;;;6.30;2.70;;;;;;;;;;5067860;28;20024;-76
2023/01/08 00:48:23;;;;;;;4.25;2.50;;;;;;;;;;5070244;28;20108;-75
2023/01/08 00:50:50;;;;;;;4.05;2.40;;;;;;;;;;5049002;28;20657;-77
2023/01/08 00:53:17;;;;;;;4.82;2.70;;;;;;;;;;5047533;28;20025;-76
2023/01/08 00:55:43;;;;;;;5.10;3.05;;;;;;;;;;5064256;28;20032;-76
2023/01/08 00:58:09;;;;;;;5.15;2.58;;;;;;;;;;5067791;28;20036;-76
2023/01/08 01:00:35;;;;;;;7.35;2.42;;;;;;;;;;5063603;28;20041;-77
2023/01/08 01:03:01;;;;;;;5.55;2.35;;;;;;;;;;5068735;28;20296;-76
2023/01/08 01:05:27;;;;;;;8.00;2.58;;;;;;;;;;5073475;28;20162;-77
2023/01/08 01:07:53;;;;;;;3.53;2.08;;;;;;;;;;5068385;28;20096;-76
2023/01/08 01:10:19;;;;;;;5.70;2.33;;;;;;;;;;5069691;28;20090;-76
2023/01/08 01:12:45;;;;;;;5.10;2.53;;;;;;;;;;5065541;28;20025;-76
2023/01/08 01:15:13;;;;;;;4.68;2.30;;;;;;;;;;5070218;28;20036;-76
2023/01/08 01:17:40;;;;;;;6.63;2.58;;;;;;;;;;5068885;28;20024;-76
2023/01/08 01:20:07;;;;;;;7.88;2.72;;;;;;;;;;5067921;28;20028;-78
2023/01/08 01:22:33;;;;;;;5.07;2.50;;;;;;;;;;5064425;28;20938;-77
2023/01/08 01:24:59;;;;;;;8.23;2.45;;;;;;;;;;5044686;28;20029;-75
2023/01/08 01:27:26;;;;;;;7.30;2.75;;;;;;;;;;5069656;28;20497;-75
2023/01/08 01:29:52;;;;;;;6.78;2.65;;;;;;;;;;5068920;28;20473;-75
2023/01/08 01:32:18;;;;;;;6.30;2.55;;;;;;;;;;5067409;28;20036;-74
2023/01/08 01:34:44;;;;;;;4.03;2.45;;;;;;;;;;5072130;28;20041;-75
2023/01/08 01:37:13;;;;;;;6.68;2.55;;;;;;;;;;5065405;28;20086;-76
2023/01/08 01:39:42;;;;;;;6.53;2.30;;;;;;;;;;5068262;28;20041;-76
2023/01/08 01:42:38;;;;;;;7.22;2.67;;;;;;;;;;5067631;28;20066;-75
2023/01/08 01:44:57;;;;;;;5.68;2.05;;;;;;;;;;5067243;28;20048;-75
2023/01/08 01:47:35;;;;;;;10.60;3.00;;;;;;;;;;5065042;28;20037;-75
2023/01/08 01:50:10;;;;;;;6.65;2.78;;;;;;;;;;5069293;28;20428;-75
2023/01/08 01:52:37;;;;;;;4.70;2.53;;;;;;;;;;5067049;28;20037;-75
2023/01/08 01:55:04;;;;;;;5.80;2.65;;;;;;;;;;5065224;28;20100;-75
2023/01/08 01:57:30;;;;;;;10.20;3.35;;;;;;;;;;5063428;28;20420;-75
2023/01/08 01:59:57;;;;;;;7.22;1.90;;;;;;;;;;5061634;28;20033;-75
2023/01/08 02:02:23;;;;;;;11.77;2.55;;;;;;;;;;5066524;28;20031;-75
2023/01/08 02:04:50;;;;;;;7.72;2.50;;;;;;;;;;5065084;28;20041;-75
2023/01/08 02:07:19;;;;;;;7.85;2.40;;;;;;;;;;5066706;28;20025;-76
2023/01/08 02:09:49;;;;;;;8.48;2.42;;;;;;;;;;5063598;28;20107;-75
2023/01/08 02:12:18;;;;;;;13.57;2.83;;;;;;;;;;5064669;28;20477;-75
2023/01/08 02:14:56;;;;;;;16.05;2.83;;;;;;;;;;5063712;28;20435;-75
2023/01/08 02:17:41;;;;;;;8.00;2.13;;;;;;;;;;5063186;28;20370;-74
2023/01/08 02:20:07;;;;;;;11.73;3.50;;;;;;;;;;5065146;28;20039;-75
2023/01/08 02:22:44;;;;;;;10.00;3.45;;;;;;;;;;5063777;28;20028;-76
2023/01/08 02:25:13;;;;;;;14.65;2.08;;;;;;;;;;5059485;28;20479;-73
2023/01/08 02:27:40;;;;;;;16.00;1.95;;;;;;;;;;5064003;28;20059;-74
2023/01/08 02:30:07;;;;;;;13.80;3.13;;;;;;;;;;5059388;28;20166;-75
2023/01/08 02:32:35;;;;;;;10.70;1.83;;;;;;;;;;5063135;28;20040;-75
2023/01/08 02:35:01;;;;;;;16.75;2.70;;;;;;;;;;5065560;28;20474;-75
2023/01/08 02:37:27;;;;;;;14.35;2.35;;;;;;;;;;5069639;28;20040;-74
2023/01/08 02:39:56;;;;;;;12.25;2.20;;;;;;;;;;5055336;28;20074;-75
2023/01/08 02:42:29;;;;;;;19.55;2.80;;;;;;;;;;5064740;28;20109;-75
2023/01/08 02:45:01;;;;;;;10.35;2.38;;;;;;;;;;5046139;28;20036;-75
2023/01/08 02:47:33;;;;;;;9.25;2.03;;;;;;;;;;5066587;28;20393;-75
2023/01/08 02:50:19;;;;;;;11.20;3.42;;;;;;;;;;5057516;28;20039;-75
2023/01/08 02:53:03;;;;;;;13.40;2.28;;;;;;;;;;5042601;28;20057;-75
2023/01/08 02:55:30;;;;;;;11.98;2.58;;;;;;;;;;5059510;28;20397;-75
2023/01/08 02:57:57;;;;;;;12.10;2.55;;;;;;;;;;5062057;28;20116;-75
2023/01/08 03:00:23;;;;;;;15.05;2.53;;;;;;;;;;5060237;28;20029;-75
2023/01/08 03:02:51;;;;;;;17.00;2.20;;;;;;;;;;5060999;28;20033;-75
2023/01/08 03:05:24;;;;;;;9.18;2.65;;;;;;;;;;5059300;28;20036;-75
2023/01/08 03:07:50;;;;;;;13.68;2.78;;;;;;;;;;5064666;28;20036;-76
2023/01/08 03:10:18;;;;;;;12.02;2.10;;;;;;;;;;5060101;28;20047;-75
2023/01/08 03:12:44;;;;;;;13.80;1.70;;;;;;;;;;5062276;28;20044;-75
2023/01/08 03:15:13;;;;;;;16.60;3.30;;;;;;;;;;5059465;28;20040;-75
2023/01/08 03:17:49;;;;;;;15.55;5.05;;;;;;;;;;5060799;28;20413;-76
2023/01/08 03:20:18;;;;;;;11.20;3.20;;;;;;;;;;5056769;28;20104;-74
2023/01/08 03:22:47;;;;;;;14.82;1.77;;;;;;;;;;5059851;28;20032;-75
2023/01/08 03:25:14;;;;;;;12.00;2.20;;;;;;;;;;5061174;28;20107;-77
2023/01/08 03:27:44;;;;;;;12.93;2.38;;;;;;;;;;5059639;28;20084;-74
2023/01/08 03:30:11;;;;;;;16.92;2.00;;;;;;;;;;5046396;28;21244;-76
2023/01/08 03:32:39;;;;;;;10.52;2.00;;;;;;;;;;5043419;28;20040;-74
2023/01/08 03:35:06;;;;;;;12.75;2.35;;;;;;;;;;5062371;28;20040;-74
2023/01/08 03:37:35;;;;;;;14.57;3.10;;;;;;;;;;5060507;28;20476;-75
2023/01/08 03:40:06;;;;;;;10.85;2.20;;;;;;;;;;5060289;28;20032;-75
2023/01/08 03:42:33;;;;;;;11.80;2.17;;;;;;;;;;5060515;28;20043;-74
2023/01/08 03:44:59;;;;;;;11.15;2.00;;;;;;;;;;5062913;28;20082;-74
2023/01/08 03:47:27;;;;;;;11.80;2.28;;;;;;;;;;5038057;28;20037;-75
2023/01/08 03:49:55;;;;;;;6.53;1.83;;;;;;;;;;5062893;28;20028;-74
2023/01/08 03:52:22;;;;;;;8.27;2.00;;;;;;;;;;5060648;28;20388;-74
2023/01/08 03:54:48;;;;;;;6.25;1.52;;;;;;;;;;5042301;28;20777;-75
2023/01/08 03:57:14;;;;;;;12.15;2.03;;;;;;;;;;5060455;28;20068;-74
2023/01/08 03:59:40;;;;;;;9.00;2.03;;;;;;;;;;5058904;28;20120;-74
2023/01/08 04:02:07;;;;;;;8.02;1.80;;;;;;;;;;5063223;28;20521;-74
2023/01/08 04:04:33;;;;;;;7.70;1.85;;;;;;;;;;5064869;28;20040;-74
2023/01/08 04:06:59;;;;;;;5.75;1.73;;;;;;;;;;5070307;28;20025;-74
2023/01/08 04:09:25;;;;;;;6.57;1.88;;;;;;;;;;5062203;28;20039;-74
2023/01/08 04:11:51;;;;;;;16.05;1.80;;;;;;;;;;5065058;28;20024;-75
2023/01/08 04:14:17;;;;;;;9.35;1.40;;;;;;;;;;5063489;28;20047;-75
2023/01/08 04:16:44;;;;;;;5.78;1.60;;;;;;;;;;5066053;28;20032;-75
2023/01/08 04:19:13;;;;;;;8.13;2.03;;;;;;;;;;5059465;28;20037;-74
2023/01/08 04:21:39;;;;;;;9.35;2.33;;;;;;;;;;5063880;28;20036;-75
2023/01/08 04:24:05;;;;;;;9.02;1.85;;;;;;;;;;5061170;28;20032;-75
2023/01/08 04:26:33;;;;;;;5.57;1.70;;;;;;;;;;5044723;28;20455;-75
2023/01/08 04:29:01;;;;;;;3.83;1.77;;;;;;;;;;5062395;28;20164;-75
2023/01/08 04:31:27;;;;;;;15.48;3.22;;;;;;;;;;5068792;28;20044;-75
2023/01/08 04:33:53;;;;;;;6.43;2.05;;;;;;;;;;5064834;28;20056;-75
2023/01/08 04:36:19;;;;;;;7.65;2.03;;;;;;;;;;5058794;28;20457;-75
2023/01/08 04:38:45;;;;;;;6.18;1.85;;;;;;;;;;5060542;28;20056;-76
2023/01/08 04:41:11;;;;;;;6.25;1.60;;;;;;;;;;5061019;28;20025;-76
2023/01/08 04:43:37;;;;;;;5.00;1.63;;;;;;;;;;5054051;28;20529;-76
2023/01/08 04:46:06;;;;;;;7.78;2.08;;;;;;;;;;5067634;28;20028;-74
2023/01/08 04:48:32;;;;;;;15.82;6.80;;;;;;;;;;5067478;28;20423;-74
2023/01/08 04:50:59;;;;;;;13.13;6.20;;;;;;;;;;5069723;28;20062;-74
2023/01/08 04:53:25;;;;;;;6.15;1.85;;;;;;;;;;5047554;28;20055;-74
2023/01/08 04:55:51;;;;;;;5.07;2.17;;;;;;;;;;5066943;28;20032;-75
2023/01/08 04:58:17;;;;;;;8.02;2.53;;;;;;;;;;5062974;28;20031;-76
2023/01/08 05:00:43;;;;;;;5.30;1.98;;;;;;;;;;5064033;28;20331;-76
2023/01/08 05:03:09;;;;;;;6.18;2.03;;;;;;;;;;5066038;28;20460;-77
2023/01/08 05:05:35;;;;;;;8.10;2.50;;;;;;;;;;5072213;28;20025;-75
2023/01/08 05:08:01;;;;;;;8.13;3.00;;;;;;;;;;5063145;28;20130;-75
2023/01/08 05:10:27;;;;;;;5.72;2.35;;;;;;;;;;5066460;28;20068;-75
2023/01/08 05:12:57;;;;;;;4.95;1.92;;;;;;;;;;5049509;28;20454;-75
2023/01/08 05:15:23;;;;;;;8.15;2.00;;;;;;;;;;5050947;28;20164;-75
2023/01/08 05:17:57;;;;;;;8.50;2.13;;;;;;;;;;5065417;28;20116;-75
2023/01/08 05:20:22;;;;;;;9.60;2.40;;;;;;;;;;5068559;28;20037;-76
2023/01/08 05:22:48;;;;;;;8.63;1.98;;;;;;;;;;5059816;28;20047;-76
2023/01/08 05:25:14;;;;;;;9.05;2.10;;;;;;;;;;5065967;28;20461;-76
2023/01/08 05:27:40;;;;;;;5.90;1.60;;;;;;;;;;5066925;28;20044;-75
2023/01/08 05:30:07;;;;;;;6.72;1.88;;;;;;;;;;5061350;28;20043;-75
2023/01/08 05:32:33;;;;;;;6.60;1.95;;;;;;;;;;5071317;28;20044;-75
2023/01/08 05:34:59;;;;;;;5.43;1.50;;;;;;;;;;5064594;28;20028;-75
2023/01/08 05:37:25;;;;;;;4.50;1.45;;;;;;;;;;5045753;28;20035;-74
2023/01/08 05:39:51;;;;;;;5.80;2.50;;;;;;;;;;5065972;28;20370;-74
2023/01/08 05:42:17;;;;;;;5.93;1.55;;;;;;;;;;5067556;28;20066;-72
2023/01/08 05:44:43;;;;;;;9.20;3.42;;;;;;;;;;5058956;28;21542;-72
2023/01/08 05:47:09;;;;;;;6.15;2.28;;;;;;;;;;5060906;28;20110;-73
2023/01/08 05:49:35;;;;;;;4.53;1.80;;;;;;;;;;5065839;28;20036;-74
2023/01/08 05:52:01;;;;;;;2.40;1.02;;;;;;;;;;5055299;28;20044;-75
2023/01/08 05:54:27;;;;;;;5.18;1.58;;;;;;;;;;5065429;28;20032;-75
2023/01/08 05:56:53;;;;;;;6.97;1.48;;;;;;;;;;5065814;28;20033;-76
2023/01/08 05:59:19;;;;;;;4.95;1.30;;;;;;;;;;5065386;28;20040;-76
2023/01/08 06:01:45;;;;;;;10.50;2.55;;;;;;;;;;5055966;28;20082;-74
2023/01/08 06:04:11;;;;;;;9.18;1.83;;;;;;;;;;5067375;28;20025;-74
2023/01/08 06:06:37;;;;;;;6.20;1.50;;;;;;;;;;5064230;28;20033;-72
2023/01/08 06:09:03;;;;;;;7.18;1.75;;;;;;;;;;5064805;28;20043;-73
2023/01/08 06:11:29;;;;;;;9.65;1.60;;;;;;;;;;5065296;28;20151;-73
2023/01/08 06:13:55;;;;;;;15.00;1.60;;;;;;;;;;5062722;28;20503;-73
2023/01/08 06:16:21;;;;;;;10.48;2.08;;;;;;;;;;5048366;28;20032;-75
2023/01/08 06:18:47;;;;;;;3.55;0.93;;;;;;;;;;5063389;28;20040;-73
2023/01/08 06:21:13;;;;;;;7.30;1.20;;;;;;;;;;5046902;28;20528;-73
2023/01/08 06:23:39;;;;;;;5.45;0.98;;;;;;;;;;5060161;28;20081;-73
2023/01/08 06:26:06;;;;;;;5.78;1.75;;;;;;;;;;5046826;28;20048;-72
2023/01/08 06:28:32;;;;;;;5.25;1.48;;;;;;;;;;5047405;28;20130;-74
2023/01/08 06:30:59;;;;;;;6.47;2.00;;;;;;;;;;5043720;28;20060;-74
2023/01/08 06:33:25;;;;;;;3.03;1.52;;;;;;;;;;5043963;28;20119;-73
2023/01/08 06:35:51;;;;;;;7.32;1.67;;;;;;;;;;5044984;28;20037;-73
2023/01/08 06:38:18;;;;;;;7.78;1.67;;;;;;;;;;5046885;28;20024;-74
2023/01/08 06:40:44;;;;;;;7.57;1.65;;;;;;;;;;5045072;28;20070;-73
2023/01/08 06:43:10;;;;;;;6.45;1.50;;;;;;;;;;5044030;28;20545;-76
2023/01/08 06:45:36;;;;;;;6.30;2.05;;;;;;;;;;5043275;28;20159;-77
2023/01/08 06:48:03;;;;;;;7.07;2.45;;;;;;;;;;5037801;28;20044;-72
2023/01/08 06:50:29;;;;;;;7.70;2.30;;;;;;;;;;5041245;28;20653;-74
2023/01/08 06:52:56;;;;;;;9.00;2.60;;;;;;;;;;5039739;28;20037;-73
2023/01/08 06:55:24;;;;;;;8.93;2.50;;;;;;;;;;5042158;28;20025;-73
2023/01/08 06:58:09;;;;;;;6.75;3.50;;;;;;;;;;5040727;28;20037;-74
2023/01/08 07:00:35;;;;;;;6.93;2.28;;;;;;;;;;5040786;28;20029;-73
2023/01/08 07:03:01;;;;;;;9.23;2.28;;;;;;;;;;5048237;28;20029;-75
2023/01/08 07:05:27;;;;;;;5.15;2.58;;;;;;;;;;5044406;28;20029;-75
2023/01/08 07:07:53;;;;;;;4.00;2.35;;;;;;;;;;5047664;28;20037;-74
2023/01/08 07:10:19;;;;;;;11.45;2.83;;;;;;;;;;5045708;28;20037;-73
2023/01/08 07:12:45;;;;;;;4.97;2.13;;;;;;;;;;5045151;28;20033;-73
2023/01/08 07:15:11;;;;;;;8.98;2.72;;;;;;;;;;5042860;28;20035;-73
2023/01/08 07:17:37;;;;;;;8.20;3.08;;;;;;;;;;5052263;28;20040;-74
2023/01/08 07:20:03;;;;;;;13.05;3.28;;;;;;;;;;5045237;28;20033;-73
2023/01/08 07:22:29;;;;;;;8.25;2.80;;;;;;;;;;5041263;28;20032;-73
2023/01/08 07:24:55;;;;;;;8.98;2.58;;;;;;;;;;5041901;28;20390;-72
2023/01/08 07:27:21;;;;;;;3.60;2.35;;;;;;;;;;5063249;28;20059;-73
2023/01/08 07:29:47;;;;;;;9.15;2.78;;;;;;;;;;5067561;28;20033;-73
2023/01/08 07:32:13;;;;;;;5.65;2.85;;;;;;;;;;5063671;28;20029;-73
2023/01/08 07:34:39;;;;;;;6.43;3.03;;;;;;;;;;5047261;28;20035;-74
2023/01/08 07:37:05;;;;;;;9.75;2.90;;;;;;;;;;5049194;28;20031;-72
2023/01/08 07:39:32;;;;;;;8.38;3.38;;;;;;;;;;5049944;28;21494;-76
2023/01/08 07:41:58;;;;;;;7.68;3.08;;;;;;;;;;5066087;28;20033;-74
2023/01/08 07:44:24;;;;;;;11.80;3.30;;;;;;;;;;5063021;28;20112;-74
2023/01/08 07:46:50;;;;;;;8.65;3.17;;;;;;;;;;5047454;28;20029;-73
2023/01/08 07:49:16;;;;;;;9.90;3.50;;;;;;;;;;5067360;28;20037;-73
2023/01/08 07:51:42;;;;;;;7.53;2.90;;;;;;;;;;5064260;28;20037;-73
2023/01/08 07:54:08;;;;;;;8.30;2.85;;;;;;;;;;5060595;28;20046;-71
2023/01/08 07:56:34;;;;;;;9.15;3.50;;;;;;;;;;5066753;28;20107;-74
2023/01/08 07:59:00;;;;;;;7.47;2.60;;;;;;;;;;5050730;28;20450;-75
2023/01/08 08:01:26;;;;;;;6.57;2.72;;;;;;;;;;5059600;28;20028;-75
2023/01/08 08:03:52;;;;;;;9.57;2.53;;;;;;;;;;5056917;28;20052;-74
2023/01/08 08:06:19;;;;;;;18.95;5.68;;;;;;;;;;5059630;28;20077;-73
2023/01/08 08:08:45;;;;;;;9.13;3.47;;;;;;;;;;5055788;28;20036;-73
2023/01/08 08:11:10;;;;;;;5.90;2.53;;;;;;;;;;5045836;28;20036;-74
2023/01/08 08:13:41;;;;;;;11.60;3.42;;;;;;;;;;5063792;28;20028;-75
2023/01/08 08:16:07;;;;;;;8.20;2.70;;;;;;;;;;5056177;28;20108;-76
2023/01/08 08:18:33;;;;;;;11.73;2.97;;;;;;;;;;5056480;28;20366;-74
2023/01/08 08:20:59;;;;;;;9.23;3.58;;;;;;;;;;5057220;28;20533;-73
2023/01/08 08:23:25;;;;;;;11.82;2.72;;;;;;;;;;5063090;28;20045;-76
2023/01/08 08:25:51;;;;;;;9.75;2.83;;;;;;;;;;5061259;28;20420;-76
2023/01/08 08:28:17;;;;;;;10.48;2.40;;;;;;;;;;5039639;28;20481;-79
2023/01/08 08:30:44;;;;;;;14.30;4.35;;;;;;;;;;5058293;28;20111;-76
2023/01/08 08:33:10;;;;;;;10.93;3.03;;;;;;;;;;5060274;28;20044;-74
2023/01/08 08:35:36;;;;;;;11.30;2.72;;;;;;;;;;5067035;28;20065;-76
2023/01/08 08:38:02;;;;;;;9.10;2.28;;;;;;;;;;5067415;28;20029;-75
2023/01/08 08:40:28;;;;;;;10.82;3.00;;;;;;;;;;5065870;28;20044;-75
2023/01/08 08:42:55;;;;;;;8.88;3.55;;;;;;;;;;5051137;28;20033;-76
2023/01/08 08:45:21;;;;;;;9.48;2.65;;;;;;;;;;5065999;28;20495;-75
2023/01/08 08:47:47;;;;;;;6.75;3.83;;;;;;;;;;5061912;28;20040;-75
2023/01/08 08:50:13;;;;;;;10.80;4.00;;;;;;;;;;5064503;28;20118;-75
2023/01/08 08:52:39;;;;;;;13.10;5.03;;;;;;;;;;5042191;28;20033;-75
2023/01/08 08:55:06;;;;;;;8.32;1.77;;;;;;;;;;5067237;28;20052;-74
2023/01/08 08:57:32;;;;;;;7.25;1.90;;;;;;;;;;5068592;28;20158;-76
2023/01/08 08:59:58;;;;;;;10.25;2.35;;;;;;;;;;5066429;28;20030;-74
2023/01/08 09:02:24;;;;;;;18.65;2.55;;;;;;;;;;5065883;28;20075;-75
2023/01/08 09:04:51;;;;;;;10.63;2.45;;;;;;;;;;5063065;28;20029;-75
2023/01/08 09:07:16;;;;;;;7.95;3.35;;;;;;;;;;5063189;28;20033;-75
2023/01/08 09:09:43;;;;;;;7.68;1.73;;;;;;;;;;5060480;28;20994;-75
2023/01/08 09:12:09;;;;;;;10.57;2.85;;;;;;;;;;5063835;28;20040;-75
2023/01/08 09:14:35;;;;;;;7.07;2.42;;;;;;;;;;5062831;28;20039;-75
2023/01/08 09:17:01;;;;;;;10.48;2.60;;;;;;;;;;5068507;28;20029;-75
2023/01/08 09:19:27;;;;;;;8.25;2.20;;;;;;;;;;5063327;28;20492;-75
2023/01/08 09:21:53;;;;;;;4.15;2.33;;;;;;;;;;5068318;28;20040;-76
2023/01/08 09:24:19;;;;;;;11.40;3.70;;;;;;;;;;5066147;28;20061;-75
2023/01/08 09:26:45;;;;;;;11.48;3.95;;;;;;;;;;5066004;28;20064;-75
2023/01/08 09:29:11;;;;;;;17.63;4.55;;;;;;;;;;5068129;28;20097;-76
2023/01/08 09:31:37;;;;;;;12.18;3.67;;;;;;;;;;5065658;28;20459;-76
2023/01/08 09:34:03;;;;;;;18.58;8.05;;;;;;;;;;5065596;28;20032;-75
2023/01/08 09:36:29;;;;;;;12.70;3.97;;;;;;;;;;5059231;28;20048;-77
2023/01/08 09:38:55;;;;;;;9.32;2.30;;;;;;;;;;5065592;28;20029;-77
2023/01/08 09:41:27;;;;;;;9.20;2.47;;;;;;;;;;5070243;28;20047;-77
2023/01/08 09:43:54;;;;;;;11.18;2.00;;;;;;;;;;5069410;28;20083;-77
2023/01/08 09:46:21;;;;;;;6.80;1.70;;;;;;;;;;5065602;28;20112;-77
2023/01/08 09:48:48;;;;;;;8.60;2.95;;;;;;;;;;5048743;28;20028;-75
2023/01/08 09:51:15;;;;;;;12.93;4.85;;;;;;;;;;5064997;28;20377;-74
2023/01/08 09:53:42;;;;;;;9.07;2.67;;;;;;;;;;5065170;28;20040;-76
2023/01/08 09:56:15;;;;;;;14.73;3.78;;;;;;;;;;5047070;28;20040;-74
2023/01/08 09:58:47;;;;;;;10.15;2.15;;;;;;;;;;5069967;28;20332;-76
2023/01/08 10:01:14;;;;;;;5.70;1.42;;;;;;;;;;5067262;28;20040;-74
2023/01/08 10:03:45;;;;;;;9.85;1.77;;;;;;;;;;5067562;28;20059;-75
2023/01/08 10:06:12;;;;;;;11.70;2.50;;;;;;;;;;5069942;28;20116;-76
2023/01/08 10:08:38;;;;;;;7.97;1.95;;;;;;;;;;5062558;28;20036;-76
2023/01/08 10:11:04;;;;;;;10.43;2.10;;;;;;;;;;5066267;28;20461;-76
2023/01/08 10:13:31;;;;;;;7.03;1.75;;;;;;;;;;5065616;28;20435;-76
2023/01/08 10:15:58;;;;;;;8.45;1.73;;;;;;;;;;5063299;28;20052;-75
2023/01/08 10:18:25;;;;;;;10.95;2.92;;;;;;;;;;5061048;28;20029;-76
2023/01/08 10:20:51;;;;;;;12.48;4.22;;;;;;;;;;5065998;28;20028;-74
2023/01/08 10:23:20;;;;;;;17.38;4.20;;;;;;;;;;5062886;28;20385;-76
2023/01/08 10:25:55;;;;;;;23.65;7.60;;;;;;;;;;5068943;28;20070;-74
2023/01/08 10:28:25;;;;;;;25.10;7.47;;;;;;;;;;5069229;28;20067;-73
2023/01/08 10:30:52;;;;;;;15.95;3.67;;;;;;;;;;5061932;28;20056;-75
2023/01/08 10:33:20;;;;;;;15.43;2.47;;;;;;;;;;5064107;28;20055;-73
2023/01/08 10:35:52;;;;;;;19.02;3.35;;;;;;;;;;5066060;28;20474;-76
2023/01/08 10:38:26;;;;;;;10.23;1.83;;;;;;;;;;5069182;28;20028;-73
2023/01/08 10:40:52;;;;;;;14.00;2.08;;;;;;;;;;5062140;28;20036;-73
2023/01/08 10:43:19;;;;;;;15.27;2.60;;;;;;;;;;5059107;28;20673;-72
2023/01/08 10:46:00;;;;;;;14.95;2.03;;;;;;;;;;5063675;28;20108;-74
2023/01/08 10:48:33;;;;;;;11.77;2.83;;;;;;;;;;5045989;28;20025;-72
2023/01/08 10:51:20;;;;;;;21.42;9.38;;;;;;;;;;5063136;28;20036;-74
2023/01/08 10:53:46;;;;;;;13.23;3.92;;;;;;;;;;5060652;28;20041;-74
2023/01/08 10:56:21;;;;;;;11.35;2.95;;;;;;;;;;5058493;28;20025;-73
2023/01/08 10:58:47;;;;;;;13.93;2.35;;;;;;;;;;5064952;28;20028;-74
2023/01/08 11:01:16;;;;;;;6.82;1.90;;;;;;;;;;5043747;28;20036;-74
2023/01/08 11:03:43;;;;;;;11.98;1.90;;;;;;;;;;5060602;28;20528;-77
2023/01/08 11:06:10;;;;;;;13.52;2.08;;;;;;;;;;5041465;28;20505;-74
2023/01/08 11:08:36;;;;;;;15.77;2.85;;;;;;;;;;5062885;28;20016;-75
2023/01/08 11:11:02;;;;;;;16.48;4.18;;;;;;;;;;5043525;28;20461;-75
2023/01/08 11:13:29;;;;;;;13.20;4.55;;;;;;;;;;5056393;28;20045;-73
2023/01/08 11:16:13;;;;;;;35.30;17.65;;;;;;;;;;5062389;28;20031;-75
2023/01/08 11:18:47;;;;;;;31.63;11.10;;;;;;;;;;5064815;28;20115;-73
2023/01/08 11:21:19;;;;;;;14.85;3.22;;;;;;;;;;5059849;28;20064;-75
2023/01/08 11:23:46;;;;;;;13.00;2.50;;;;;;;;;;5059606;28;20028;-74
2023/01/08 11:26:15;;;;;;;12.15;2.05;;;;;;;;;;5059250;28;20239;-76
2023/01/08 11:28:52;;;;;;;18.50;2.63;;;;;;;;;;5059580;28;20431;-73
2023/01/08 11:31:28;;;;;;;16.63;4.03;;;;;;;;;;5055296;28;20040;-74
2023/01/08 11:33:58;;;;;;;10.85;2.90;;;;;;;;;;5057698;28;20111;-73
2023/01/08 11:36:27;;;;;;;17.38;2.50;;;;;;;;;;5063374;28;20166;-75
2023/01/08 11:38:53;;;;;;;13.55;3.20;;;;;;;;;;5060018;28;20615;-74
2023/01/08 11:41:38;;;;;;;15.40;4.32;;;;;;;;;;5060837;28;20119;-76
2023/01/08 11:44:04;;;;;;;8.15;2.20;;;;;;;;;;5061518;28;20032;-73
2023/01/08 11:46:45;;;;;;;12.13;2.65;;;;;;;;;;5062562;28;20025;-74
2023/01/08 11:49:11;;;;;;;16.80;2.92;;;;;;;;;;5064175;28;20035;-73
2023/01/08 11:51:49;;;;;;;12.02;2.05;;;;;;;;;;5064942;28;20040;-74
2023/01/08 11:54:41;;;;;;;16.70;2.67;;;;;;;;;;5053215;28;20028;-74
2023/01/08 11:57:14;;;;;;;16.58;3.25;;;;;;;;;;5046087;28;20036;-76
2023/01/08 11:59:40;;;;;;;;;;;;;;;;;;5070392;28;20025;-76
2023/01/08 12:02:06;;;;;;;18.08;2.22;;;;;;;;;;5062704;28;19974;-77
2023/01/08 12:04:51;;;;;;;17.35;2.70;;;;;;;;;;5063139;28;20021;-75
2023/01/08 12:07:32;;;;;;;12.80;2.50;;;;;;;;;;5066128;28;20096;-73
2023/01/08 12:10:03;;;;;;;14.10;2.80;;;;;;;;;;5064262;28;20020;-74
2023/01/08 12:12:35;;;;;;;13.90;2.72;;;;;;;;;;5043889;28;20102;-77
2023/01/08 12:15:04;;;;;;;17.38;8.10;;;;;;;;;;5061779;28;20112;-73
2023/01/08 12:17:56;;;;;;;21.50;4.22;;;;;;;;;;5062594;28;20021;-73
2023/01/08 12:20:36;;;;;;;22.75;2.97;;;;;;;;;;5059633;28;20041;-73
2023/01/08 12:23:08;;;;;;;18.23;3.13;;;;;;;;;;5066460;28;20028;-74
2023/01/08 12:25:42;;;;;;;13.82;2.58;;;;;;;;;;5066795;28;20448;-73
2023/01/08 12:28:22;;;;;;;16.88;3.42;;;;;;;;;;5065882;28;20128;-72
2023/01/08 12:30:54;;;;;;;16.17;3.50;;;;;;;;;;5065692;28;20062;-71
2023/01/08 12:33:26;;;;;;;16.25;3.55;;;;;;;;;;5052457;28;20493;-72
2023/01/08 12:35:54;;;;;;;23.92;4.20;;;;;;;;;;5071195;28;20110;-75
2023/01/08 12:38:30;;;;;;;11.18;3.08;;;;;;;;;;5058995;28;20043;-75
2023/01/08 12:40:58;;;;;;;16.95;3.53;;;;;;;;;;5067439;28;20485;-73
2023/01/08 12:43:40;;;;;;;14.52;3.92;;;;;;;;;;5066196;28;20086;-74
2023/01/08 12:46:06;;;;;;;15.80;3.67;;;;;;;;;;5071429;28;20036;-73
2023/01/08 12:48:37;;;;;;;14.00;3.67;;;;;;;;;;5070403;28;20020;-73
2023/01/08 12:51:10;;;;;;;13.45;3.05;;;;;;;;;;5073570;28;20048;-75
2023/01/08 12:53:42;;;;;;;11.05;3.00;;;;;;;;;;5066413;28;20132;-72
2023/01/08 12:56:32;;;;;;;10.30;2.50;;;;;;;;;;5046859;28;20029;-76
2023/01/08 12:58:58;;;;;;;14.73;3.60;;;;;;;;;;5023193;28;20040;-73
2023/01/08 13:01:41;;;;;;;11.00;2.33;;;;;;;;;;5051737;28;20037;-74
2023/01/08 13:04:08;;;;;;;12.63;3.08;;;;;;;;;;5069778;28;20067;-74
2023/01/08 13:06:35;;;;;;;15.90;3.15;;;;;;;;;;5066970;28;20033;-76
2023/01/08 13:09:01;;;;;;;14.10;2.60;;;;;;;;;;5068474;28;20023;-74
2023/01/08 13:11:31;;;;;;;11.82;2.92;;;;;;;;;;5049357;28;20123;-74
2023/01/08 13:14:17;;;;;;;11.30;2.60;;;;;;;;;;5064665;28;20063;-73
2023/01/08 13:16:59;;;;;;;12.85;3.28;;;;;;;;;;5066898;28;20040;-73
2023/01/08 13:19:27;;;;;;;11.40;2.33;;;;;;;;;;5070054;28;20032;-74
2023/01/08 13:21:54;;;;;;;15.10;3.92;;;;;;;;;;5063723;28;20032;-74
2023/01/08 13:24:21;;;;;;;12.20;1.98;;;;;;;;;;5065825;28;20024;-75
2023/01/08 13:26:47;;;;;;;8.45;2.05;;;;;;;;;;5071799;28;20048;-73
2023/01/08 13:29:36;;;;;;;13.15;3.05;;;;;;;;;;5070309;28;20044;-73
2023/01/08 13:32:02;;;;;;;11.40;2.20;;;;;;;;;;5055175;28;20044;-74
2023/01/08 13:34:40;;;;;;;15.63;4.25;;;;;;;;;;5064825;28;20462;-74
2023/01/08 13:37:07;;;;;;;11.70;3.05;;;;;;;;;;5059675;28;20032;-73
2023/01/08 13:39:37;;;;;;;14.10;4.65;;;;;;;;;;5068778;28;20362;-72
2023/01/08 13:42:24;;;;;;;14.98;6.72;;;;;;;;;;5062400;28;20032;-73
2023/01/08 13:44:51;;;;;;;27.33;12.40;;;;;;;;;;5065466;28;20135;-74
2023/01/08 13:47:19;;;;;;;17.55;5.25;;;;;;;;;;5047993;28;20020;-71
2023/01/08 13:49:48;;;;;;;24.45;9.05;;;;;;;;;;5069529;28;20036;-71
2023/01/08 13:52:29;;;;;;;22.42;9.60;;;;;;;;;;5064653;28;20029;-72
2023/01/08 13:54:55;;;;;;;29.48;10.05;;;;;;;;;;5069702;28;20021;-73
2023/01/08 13:57:22;;;;;;;9.63;2.72;;;;;;;;;;5062882;28;20489;-75
2023/01/08 13:59:51;;;;;;;6.88;2.30;;;;;;;;;;5066922;28;20036;-71
2023/01/08 14:02:29;;;;;;;12.38;2.40;;;;;;;;;;5065183;28;20429;-73
2023/01/08 14:04:56;;;;;;;13.15;2.88;;;;;;;;;;5065529;28;20037;-72
2023/01/08 14:07:25;;;;;;;11.20;1.23;;;;;;;;;;5066097;28;20047;-74
2023/01/08 14:09:51;;;;;;;11.25;2.55;;;;;;;;;;5060952;28;20056;-75
2023/01/08 14:12:22;;;;;;;8.32;2.55;;;;;;;;;;5064456;28;20055;-74
2023/01/08 14:14:52;;;;;;;9.48;1.73;;;;;;;;;;5067784;28;20037;-74
2023/01/08 14:17:20;;;;;;;7.60;2.08;;;;;;;;;;5066949;28;20036;-72
2023/01/08 14:19:47;;;;;;;7.75;2.17;;;;;;;;;;5066150;28;20420;-74
2023/01/08 14:22:20;;;;;;;7.65;1.85;;;;;;;;;;5065196;28;20029;-74
2023/01/08 14:24:52;;;;;;;9.10;3.38;;;;;;;;;;5068344;28;20033;-73
2023/01/08 14:27:23;;;;;;;8.20;2.30;;;;;;;;;;5064697;28;20052;-74
2023/01/08 14:29:49;;;;;;;9.95;2.85;;;;;;;;;;5065960;28;20039;-74
2023/01/08 14:32:19;;;;;;;9.88;3.10;;;;;;;;;;5062014;28;20040;-74
2023/01/08 14:34:46;;;;;;;9.45;2.83;;;;;;;;;;5061132;28;20097;-74
2023/01/08 14:37:14;;;;;;;10.40;3.88;;;;;;;;;;5067904;28;20467;-74
2023/01/08 14:39:40;;;;;;;11.07;3.70;;;;;;;;;;5063675;28;20028;-74
2023/01/08 14:44:55;;;;;;;15.20;6.05;;;;;;;;;;5064494;28;20031;-76
2023/01/08 14:47:21;;;;;;;12.88;3.92;;;;;;;;;;5047481;28;20067;-74